Aviation Digital Data Service (ADDS)

Output produced by TAFs form (0646 UTC 03 December 2016)
found at http://aviationweather.gov/adds/tafs/
 
KCNM 030527Z 0306/0406 36011KT P6SM OVC012 
     TEMPO 0306/0310 4SM -RA BR OVC008 
     FM031000 34017KT 5SM -RADZ BR OVC009